sensor_id;sensor_type;location;lat;lon;timestamp;temperature;humidity
6654;DHT22;3363;50.942;7.034;2023-01-19T00:01:57;1.20;82.10
6654;DHT22;3363;50.942;7.034;2023-01-19T00:04:24;1.30;81.80
6654;DHT22;3363;50.942;7.034;2023-01-19T00:06:51;1.20;81.80
6654;DHT22;3363;50.942;7.034;2023-01-19T00:09:17;1.20;82.80
6654;DHT22;3363;50.942;7.034;2023-01-19T00:11:44;1.20;82.40
6654;DHT22;3363;50.942;7.034;2023-01-19T00:14:10;1.30;82.00
6654;DHT22;3363;50.942;7.034;2023-01-19T00:16:38;1.30;81.30
6654;DHT22;3363;50.942;7.034;2023-01-19T00:19:05;1.20;81.30
6654;DHT22;3363;50.942;7.034;2023-01-19T00:21:32;1.20;82.10
6654;DHT22;3363;50.942;7.034;2023-01-19T00:23:58;1.20;81.90
6654;DHT22;3363;50.942;7.034;2023-01-19T00:26:25;1.10;82.30
6654;DHT22;3363;50.942;7.034;2023-01-19T00:28:52;1.20;83.10
6654;DHT22;3363;50.942;7.034;2023-01-19T00:31:18;1.00;83.20
6654;DHT22;3363;50.942;7.034;2023-01-19T00:33:47;1.00;83.60
6654;DHT22;3363;50.942;7.034;2023-01-19T00:36:15;1.00;84.30
6654;DHT22;3363;50.942;7.034;2023-01-19T00:38:42;0.90;85.70
6654;DHT22;3363;50.942;7.034;2023-01-19T00:41:09;1.00;85.70
6654;DHT22;3363;50.942;7.034;2023-01-19T00:43:35;1.00;85.60
6654;DHT22;3363;50.942;7.034;2023-01-19T00:46:01;1.10;84.90
6654;DHT22;3363;50.942;7.034;2023-01-19T00:48:27;1.10;84.00
6654;DHT22;3363;50.942;7.034;2023-01-19T00:50:56;1.10;84.10
6654;DHT22;3363;50.942;7.034;2023-01-19T00:53:24;1.10;84.50
6654;DHT22;3363;50.942;7.034;2023-01-19T00:55:50;1.20;83.70
6654;DHT22;3363;50.942;7.034;2023-01-19T00:58:17;1.20;83.70
6654;DHT22;3363;50.942;7.034;2023-01-19T01:00:44;1.20;84.00
6654;DHT22;3363;50.942;7.034;2023-01-19T01:03:10;1.10;83.80
6654;DHT22;3363;50.942;7.034;2023-01-19T01:05:39;1.10;83.80
6654;DHT22;3363;50.942;7.034;2023-01-19T01:08:07;1.20;84.00
6654;DHT22;3363;50.942;7.034;2023-01-19T01:10:33;1.20;83.80
6654;DHT22;3363;50.942;7.034;2023-01-19T01:13:00;1.10;84.50
6654;DHT22;3363;50.942;7.034;2023-01-19T01:15:26;1.10;84.50
6654;DHT22;3363;50.942;7.034;2023-01-19T01:17:54;1.20;84.30
6654;DHT22;3363;50.942;7.034;2023-01-19T01:20:22;1.10;84.50
6654;DHT22;3363;50.942;7.034;2023-01-19T01:22:50;1.10;85.60
6654;DHT22;3363;50.942;7.034;2023-01-19T01:25:20;1.20;84.40
6654;DHT22;3363;50.942;7.034;2023-01-19T01:27:47;1.20;84.80
6654;DHT22;3363;50.942;7.034;2023-01-19T01:30:14;1.20;85.80
6654;DHT22;3363;50.942;7.034;2023-01-19T01:32:41;1.10;87.00
6654;DHT22;3363;50.942;7.034;2023-01-19T01:35:08;1.10;87.10
6654;DHT22;3363;50.942;7.034;2023-01-19T01:37:35;1.10;86.60
6654;DHT22;3363;50.942;7.034;2023-01-19T01:40:02;1.00;86.90
6654;DHT22;3363;50.942;7.034;2023-01-19T01:42:30;0.90;88.30
6654;DHT22;3363;50.942;7.034;2023-01-19T01:44:58;0.90;89.80
6654;DHT22;3363;50.942;7.034;2023-01-19T01:47:27;1.00;89.30
6654;DHT22;3363;50.942;7.034;2023-01-19T01:49:55;1.10;87.90
6654;DHT22;3363;50.942;7.034;2023-01-19T01:52:23;1.20;86.30
6654;DHT22;3363;50.942;7.034;2023-01-19T01:54:50;1.20;85.60
6654;DHT22;3363;50.942;7.034;2023-01-19T01:57:17;1.20;84.80
6654;DHT22;3363;50.942;7.034;2023-01-19T01:59:46;1.20;84.30
6654;DHT22;3363;50.942;7.034;2023-01-19T02:02:15;1.30;84.00
6654;DHT22;3363;50.942;7.034;2023-01-19T02:05:01;1.30;83.40
6654;DHT22;3363;50.942;7.034;2023-01-19T02:07:31;1.30;83.20
6654;DHT22;3363;50.942;7.034;2023-01-19T02:10:16;1.30;83.20
6654;DHT22;3363;50.942;7.034;2023-01-19T02:13:01;1.30;83.60
6654;DHT22;3363;50.942;7.034;2023-01-19T02:15:45;1.20;83.90
6654;DHT22;3363;50.942;7.034;2023-01-19T02:18:11;1.10;86.30
6654;DHT22;3363;50.942;7.034;2023-01-19T02:20:39;1.10;87.60
6654;DHT22;3363;50.942;7.034;2023-01-19T02:23:11;1.10;88.60
6654;DHT22;3363;50.942;7.034;2023-01-19T02:25:41;1.00;89.80
6654;DHT22;3363;50.942;7.034;2023-01-19T02:28:08;1.00;90.00
6654;DHT22;3363;50.942;7.034;2023-01-19T02:30:35;1.00;90.30
6654;DHT22;3363;50.942;7.034;2023-01-19T02:33:04;1.00;90.20
6654;DHT22;3363;50.942;7.034;2023-01-19T02:35:31;1.00;89.30
6654;DHT22;3363;50.942;7.034;2023-01-19T02:37:59;1.10;88.10
6654;DHT22;3363;50.942;7.034;2023-01-19T02:40:26;1.10;88.20
6654;DHT22;3363;50.942;7.034;2023-01-19T02:42:55;1.00;88.80
6654;DHT22;3363;50.942;7.034;2023-01-19T02:45:24;1.00;89.00
6654;DHT22;3363;50.942;7.034;2023-01-19T02:47:51;1.00;89.70
6654;DHT22;3363;50.942;7.034;2023-01-19T02:50:35;1.00;89.40
6654;DHT22;3363;50.942;7.034;2023-01-19T02:53:05;1.00;88.60
6654;DHT22;3363;50.942;7.034;2023-01-19T02:55:34;1.00;90.20
6654;DHT22;3363;50.942;7.034;2023-01-19T02:58:02;1.00;89.20
6654;DHT22;3363;50.942;7.034;2023-01-19T03:00:33;1.00;90.80
6654;DHT22;3363;50.942;7.034;2023-01-19T03:03:09;0.90;92.00
6654;DHT22;3363;50.942;7.034;2023-01-19T03:05:43;0.90;91.80
6654;DHT22;3363;50.942;7.034;2023-01-19T03:08:15;1.00;91.30
6654;DHT22;3363;50.942;7.034;2023-01-19T03:10:46;1.10;90.50
6654;DHT22;3363;50.942;7.034;2023-01-19T03:13:17;1.20;90.30
6654;DHT22;3363;50.942;7.034;2023-01-19T03:15:45;1.20;90.70
6654;DHT22;3363;50.942;7.034;2023-01-19T03:18:15;1.20;89.30
6654;DHT22;3363;50.942;7.034;2023-01-19T03:20:45;1.20;88.20
6654;DHT22;3363;50.942;7.034;2023-01-19T03:23:12;1.20;90.40
6654;DHT22;3363;50.942;7.034;2023-01-19T03:25:40;1.20;89.90
6654;DHT22;3363;50.942;7.034;2023-01-19T03:28:07;1.20;90.00
6654;DHT22;3363;50.942;7.034;2023-01-19T03:30:38;1.20;90.10
6654;DHT22;3363;50.942;7.034;2023-01-19T03:33:07;1.20;90.10
6654;DHT22;3363;50.942;7.034;2023-01-19T03:35:35;1.10;91.30
6654;DHT22;3363;50.942;7.034;2023-01-19T03:38:04;1.10;91.70
6654;DHT22;3363;50.942;7.034;2023-01-19T03:40:32;1.10;91.00
6654;DHT22;3363;50.942;7.034;2023-01-19T03:43:00;1.10;90.40
6654;DHT22;3363;50.942;7.034;2023-01-19T03:45:27;1.20;90.30
6654;DHT22;3363;50.942;7.034;2023-01-19T03:47:58;1.20;89.40
6654;DHT22;3363;50.942;7.034;2023-01-19T03:50:27;1.30;88.30
6654;DHT22;3363;50.942;7.034;2023-01-19T03:53:04;1.20;90.00
6654;DHT22;3363;50.942;7.034;2023-01-19T03:55:31;1.30;88.30
6654;DHT22;3363;50.942;7.034;2023-01-19T03:57:58;1.30;88.30
6654;DHT22;3363;50.942;7.034;2023-01-19T04:00:25;1.30;88.30
6654;DHT22;3363;50.942;7.034;2023-01-19T04:02:51;1.30;87.70
6654;DHT22;3363;50.942;7.034;2023-01-19T04:05:19;1.30;88.10
6654;DHT22;3363;50.942;7.034;2023-01-19T04:07:47;1.40;90.10
6654;DHT22;3363;50.942;7.034;2023-01-19T04:10:14;1.40;88.80
6654;DHT22;3363;50.942;7.034;2023-01-19T04:12:40;1.40;89.00
6654;DHT22;3363;50.942;7.034;2023-01-19T04:15:07;1.40;88.00
6654;DHT22;3363;50.942;7.034;2023-01-19T04:17:34;1.40;87.30
6654;DHT22;3363;50.942;7.034;2023-01-19T04:20:00;1.40;87.00
6654;DHT22;3363;50.942;7.034;2023-01-19T04:22:28;1.50;88.00
6654;DHT22;3363;50.942;7.034;2023-01-19T04:24:55;1.50;90.10
6654;DHT22;3363;50.942;7.034;2023-01-19T04:27:22;1.50;88.50
6654;DHT22;3363;50.942;7.034;2023-01-19T04:29:50;1.40;88.40
6654;DHT22;3363;50.942;7.034;2023-01-19T04:32:16;1.50;86.90
6654;DHT22;3363;50.942;7.034;2023-01-19T04:34:44;1.40;87.60
6654;DHT22;3363;50.942;7.034;2023-01-19T04:37:10;1.40;88.40
6654;DHT22;3363;50.942;7.034;2023-01-19T04:39:38;1.40;90.10
6654;DHT22;3363;50.942;7.034;2023-01-19T04:42:05;1.40;89.70
6654;DHT22;3363;50.942;7.034;2023-01-19T04:44:32;1.50;89.50
6654;DHT22;3363;50.942;7.034;2023-01-19T04:46:58;1.50;90.30
6654;DHT22;3363;50.942;7.034;2023-01-19T04:49:25;1.50;88.50
6654;DHT22;3363;50.942;7.034;2023-01-19T04:51:52;1.50;90.90
6654;DHT22;3363;50.942;7.034;2023-01-19T04:54:19;1.50;87.40
6654;DHT22;3363;50.942;7.034;2023-01-19T04:56:47;1.60;88.40
6654;DHT22;3363;50.942;7.034;2023-01-19T04:59:14;1.60;89.30
6654;DHT22;3363;50.942;7.034;2023-01-19T05:01:41;1.60;91.00
6654;DHT22;3363;50.942;7.034;2023-01-19T05:04:07;1.60;88.70
6654;DHT22;3363;50.942;7.034;2023-01-19T05:06:34;1.60;90.60
6654;DHT22;3363;50.942;7.034;2023-01-19T05:09:01;1.60;90.10
6654;DHT22;3363;50.942;7.034;2023-01-19T05:11:28;1.60;90.50
6654;DHT22;3363;50.942;7.034;2023-01-19T05:13:56;1.60;91.80
6654;DHT22;3363;50.942;7.034;2023-01-19T05:16:23;1.60;90.80
6654;DHT22;3363;50.942;7.034;2023-01-19T05:18:49;1.70;91.30
6654;DHT22;3363;50.942;7.034;2023-01-19T05:21:16;1.60;90.40
6654;DHT22;3363;50.942;7.034;2023-01-19T05:23:43;1.70;91.50
6654;DHT22;3363;50.942;7.034;2023-01-19T05:26:10;1.60;89.40
6654;DHT22;3363;50.942;7.034;2023-01-19T05:28:36;1.70;92.30
6654;DHT22;3363;50.942;7.034;2023-01-19T05:31:05;1.60;91.30
6654;DHT22;3363;50.942;7.034;2023-01-19T05:33:31;1.70;92.00
6654;DHT22;3363;50.942;7.034;2023-01-19T05:35:58;1.70;92.60
6654;DHT22;3363;50.942;7.034;2023-01-19T05:38:25;1.70;95.50
6654;DHT22;3363;50.942;7.034;2023-01-19T05:40:55;1.70;95.60
6654;DHT22;3363;50.942;7.034;2023-01-19T05:43:22;1.70;91.80
6654;DHT22;3363;50.942;7.034;2023-01-19T05:45:49;1.70;92.20
6654;DHT22;3363;50.942;7.034;2023-01-19T05:48:17;1.70;92.90
6654;DHT22;3363;50.942;7.034;2023-01-19T05:50:44;1.70;97.60
6654;DHT22;3363;50.942;7.034;2023-01-19T05:53:13;1.70;98.80
6654;DHT22;3363;50.942;7.034;2023-01-19T05:55:40;1.70;95.90
6654;DHT22;3363;50.942;7.034;2023-01-19T05:58:07;1.70;99.90
6654;DHT22;3363;50.942;7.034;2023-01-19T06:00:33;1.60;99.90
6654;DHT22;3363;50.942;7.034;2023-01-19T06:03:00;1.60;99.90
6654;DHT22;3363;50.942;7.034;2023-01-19T06:05:28;1.60;99.90
6654;DHT22;3363;50.942;7.034;2023-01-19T06:07:55;1.60;99.90
6654;DHT22;3363;50.942;7.034;2023-01-19T06:10:21;1.60;99.90
6654;DHT22;3363;50.942;7.034;2023-01-19T06:12:48;1.70;99.90
6654;DHT22;3363;50.942;7.034;2023-01-19T06:15:16;1.70;99.90
6654;DHT22;3363;50.942;7.034;2023-01-19T06:17:42;1.60;99.90
6654;DHT22;3363;50.942;7.034;2023-01-19T06:20:09;1.60;99.90
6654;DHT22;3363;50.942;7.034;2023-01-19T06:22:39;1.60;99.90
6654;DHT22;3363;50.942;7.034;2023-01-19T06:25:06;1.60;99.90
6654;DHT22;3363;50.942;7.034;2023-01-19T06:27:33;1.60;99.90
6654;DHT22;3363;50.942;7.034;2023-01-19T06:30:00;1.60;99.90
6654;DHT22;3363;50.942;7.034;2023-01-19T06:32:27;1.60;99.90
6654;DHT22;3363;50.942;7.034;2023-01-19T06:34:55;1.60;99.90
6654;DHT22;3363;50.942;7.034;2023-01-19T06:37:21;1.50;99.90
6654;DHT22;3363;50.942;7.034;2023-01-19T06:39:52;1.60;99.90
6654;DHT22;3363;50.942;7.034;2023-01-19T06:42:19;1.60;99.90
6654;DHT22;3363;50.942;7.034;2023-01-19T06:44:45;1.60;99.90
6654;DHT22;3363;50.942;7.034;2023-01-19T06:47:12;1.60;99.90
6654;DHT22;3363;50.942;7.034;2023-01-19T06:49:39;1.60;99.90
6654;DHT22;3363;50.942;7.034;2023-01-19T06:52:07;1.60;99.90
6654;DHT22;3363;50.942;7.034;2023-01-19T06:54:33;1.60;99.90
6654;DHT22;3363;50.942;7.034;2023-01-19T06:57:01;1.60;99.90
6654;DHT22;3363;50.942;7.034;2023-01-19T06:59:28;1.60;99.90
6654;DHT22;3363;50.942;7.034;2023-01-19T07:01:55;1.60;99.90
6654;DHT22;3363;50.942;7.034;2023-01-19T07:04:21;1.60;99.90
6654;DHT22;3363;50.942;7.034;2023-01-19T07:06:48;1.60;99.90
6654;DHT22;3363;50.942;7.034;2023-01-19T07:09:15;1.60;99.90
6654;DHT22;3363;50.942;7.034;2023-01-19T07:11:42;1.70;99.90
6654;DHT22;3363;50.942;7.034;2023-01-19T07:14:10;1.70;99.90
6654;DHT22;3363;50.942;7.034;2023-01-19T07:16:36;1.60;99.90
6654;DHT22;3363;50.942;7.034;2023-01-19T07:19:03;1.70;99.90
6654;DHT22;3363;50.942;7.034;2023-01-19T07:21:30;1.70;99.90
6654;DHT22;3363;50.942;7.034;2023-01-19T07:23:56;1.70;99.90
6654;DHT22;3363;50.942;7.034;2023-01-19T07:26:23;1.70;99.90
6654;DHT22;3363;50.942;7.034;2023-01-19T07:28:52;1.70;99.90
6654;DHT22;3363;50.942;7.034;2023-01-19T07:31:20;1.70;99.90
6654;DHT22;3363;50.942;7.034;2023-01-19T07:33:46;1.70;99.90
6654;DHT22;3363;50.942;7.034;2023-01-19T07:36:13;1.70;99.90
6654;DHT22;3363;50.942;7.034;2023-01-19T07:38:40;1.70;99.90
6654;DHT22;3363;50.942;7.034;2023-01-19T07:41:07;1.70;99.90
6654;DHT22;3363;50.942;7.034;2023-01-19T07:43:34;1.70;99.90
6654;DHT22;3363;50.942;7.034;2023-01-19T07:46:02;1.70;99.90
6654;DHT22;3363;50.942;7.034;2023-01-19T07:48:30;1.70;99.90
6654;DHT22;3363;50.942;7.034;2023-01-19T07:50:58;1.70;99.90
6654;DHT22;3363;50.942;7.034;2023-01-19T07:53:25;1.70;99.90
6654;DHT22;3363;50.942;7.034;2023-01-19T07:55:52;1.70;99.90
6654;DHT22;3363;50.942;7.034;2023-01-19T07:58:20;1.70;99.90
6654;DHT22;3363;50.942;7.034;2023-01-19T08:00:47;1.70;99.90
6654;DHT22;3363;50.942;7.034;2023-01-19T08:03:14;1.80;99.90
6654;DHT22;3363;50.942;7.034;2023-01-19T08:05:43;1.70;99.90
6654;DHT22;3363;50.942;7.034;2023-01-19T08:08:10;1.70;99.90
6654;DHT22;3363;50.942;7.034;2023-01-19T08:10:37;1.70;99.90
6654;DHT22;3363;50.942;7.034;2023-01-19T08:13:03;1.70;99.90
6654;DHT22;3363;50.942;7.034;2023-01-19T08:15:30;1.70;99.90
6654;DHT22;3363;50.942;7.034;2023-01-19T08:17:57;1.70;99.90
6654;DHT22;3363;50.942;7.034;2023-01-19T08:20:24;1.70;99.90
6654;DHT22;3363;50.942;7.034;2023-01-19T08:22:52;1.80;99.90
6654;DHT22;3363;50.942;7.034;2023-01-19T08:25:24;1.80;99.90
6654;DHT22;3363;50.942;7.034;2023-01-19T08:27:52;1.80;99.90
6654;DHT22;3363;50.942;7.034;2023-01-19T08:30:19;1.80;99.90
6654;DHT22;3363;50.942;7.034;2023-01-19T08:32:46;1.80;99.90
6654;DHT22;3363;50.942;7.034;2023-01-19T08:35:12;1.80;99.90
6654;DHT22;3363;50.942;7.034;2023-01-19T08:37:40;1.80;99.90
6654;DHT22;3363;50.942;7.034;2023-01-19T08:40:08;1.80;99.90
6654;DHT22;3363;50.942;7.034;2023-01-19T08:42:35;1.80;99.90
6654;DHT22;3363;50.942;7.034;2023-01-19T08:45:02;1.80;99.90
6654;DHT22;3363;50.942;7.034;2023-01-19T08:47:28;1.80;99.90
6654;DHT22;3363;50.942;7.034;2023-01-19T08:49:55;1.80;99.90
6654;DHT22;3363;50.942;7.034;2023-01-19T08:52:22;1.80;99.90
6654;DHT22;3363;50.942;7.034;2023-01-19T08:54:50;1.80;99.90
6654;DHT22;3363;50.942;7.034;2023-01-19T08:57:18;1.80;99.90
6654;DHT22;3363;50.942;7.034;2023-01-19T08:59:45;1.80;99.90
6654;DHT22;3363;50.942;7.034;2023-01-19T09:02:12;1.80;99.90
6654;DHT22;3363;50.942;7.034;2023-01-19T09:04:39;1.80;99.90
6654;DHT22;3363;50.942;7.034;2023-01-19T09:07:05;1.80;99.90
6654;DHT22;3363;50.942;7.034;2023-01-19T09:09:32;1.80;99.90
6654;DHT22;3363;50.942;7.034;2023-01-19T09:12:02;1.80;99.90
6654;DHT22;3363;50.942;7.034;2023-01-19T09:14:30;1.90;99.90
6654;DHT22;3363;50.942;7.034;2023-01-19T09:16:56;1.90;99.90
6654;DHT22;3363;50.942;7.034;2023-01-19T09:19:24;1.90;99.90
6654;DHT22;3363;50.942;7.034;2023-01-19T09:21:52;1.90;99.90
6654;DHT22;3363;50.942;7.034;2023-01-19T09:24:18;1.80;99.90
6654;DHT22;3363;50.942;7.034;2023-01-19T09:26:45;1.90;99.90
6654;DHT22;3363;50.942;7.034;2023-01-19T09:29:12;1.90;99.90
6654;DHT22;3363;50.942;7.034;2023-01-19T09:31:40;1.90;99.90
6654;DHT22;3363;50.942;7.034;2023-01-19T09:34:08;1.90;99.90
6654;DHT22;3363;50.942;7.034;2023-01-19T09:36:35;1.90;99.90
6654;DHT22;3363;50.942;7.034;2023-01-19T09:39:03;1.90;99.90
6654;DHT22;3363;50.942;7.034;2023-01-19T09:41:30;1.80;99.90
6654;DHT22;3363;50.942;7.034;2023-01-19T09:43:58;1.90;99.90
6654;DHT22;3363;50.942;7.034;2023-01-19T09:46:27;1.80;99.90
6654;DHT22;3363;50.942;7.034;2023-01-19T09:48:57;1.90;99.90
6654;DHT22;3363;50.942;7.034;2023-01-19T09:51:31;1.90;99.90
6654;DHT22;3363;50.942;7.034;2023-01-19T09:54:03;1.90;99.90
6654;DHT22;3363;50.942;7.034;2023-01-19T09:56:33;1.90;99.90
6654;DHT22;3363;50.942;7.034;2023-01-19T09:59:00;1.90;99.90
6654;DHT22;3363;50.942;7.034;2023-01-19T10:01:32;2.00;99.90
6654;DHT22;3363;50.942;7.034;2023-01-19T10:04:10;2.00;99.90
6654;DHT22;3363;50.942;7.034;2023-01-19T10:06:40;2.00;99.90
6654;DHT22;3363;50.942;7.034;2023-01-19T10:09:08;2.00;99.90
6654;DHT22;3363;50.942;7.034;2023-01-19T10:11:38;2.00;99.90
6654;DHT22;3363;50.942;7.034;2023-01-19T10:14:10;2.00;99.90
6654;DHT22;3363;50.942;7.034;2023-01-19T10:16:39;2.10;99.90
6654;DHT22;3363;50.942;7.034;2023-01-19T10:19:20;2.10;99.90
6654;DHT22;3363;50.942;7.034;2023-01-19T10:21:49;2.00;99.90
6654;DHT22;3363;50.942;7.034;2023-01-19T10:24:16;2.00;99.90
6654;DHT22;3363;50.942;7.034;2023-01-19T10:26:45;2.10;99.90
6654;DHT22;3363;50.942;7.034;2023-01-19T10:29:14;2.00;99.90
6654;DHT22;3363;50.942;7.034;2023-01-19T10:31:45;2.00;99.90
6654;DHT22;3363;50.942;7.034;2023-01-19T10:34:13;2.00;99.90
6654;DHT22;3363;50.942;7.034;2023-01-19T10:36:43;2.00;99.90
6654;DHT22;3363;50.942;7.034;2023-01-19T10:39:11;2.00;99.90
6654;DHT22;3363;50.942;7.034;2023-01-19T10:41:41;2.00;99.90
6654;DHT22;3363;50.942;7.034;2023-01-19T10:44:08;2.00;99.90
6654;DHT22;3363;50.942;7.034;2023-01-19T10:46:36;2.00;99.90
6654;DHT22;3363;50.942;7.034;2023-01-19T10:49:03;2.00;99.90
6654;DHT22;3363;50.942;7.034;2023-01-19T10:51:32;2.00;99.90
6654;DHT22;3363;50.942;7.034;2023-01-19T10:53:59;2.00;99.90
6654;DHT22;3363;50.942;7.034;2023-01-19T10:56:28;2.00;99.90
6654;DHT22;3363;50.942;7.034;2023-01-19T10:58:57;2.00;99.90
6654;DHT22;3363;50.942;7.034;2023-01-19T11:01:25;2.10;99.90
6654;DHT22;3363;50.942;7.034;2023-01-19T11:03:53;2.10;99.90
6654;DHT22;3363;50.942;7.034;2023-01-19T11:06:22;2.10;99.90
6654;DHT22;3363;50.942;7.034;2023-01-19T11:08:50;2.20;99.90
6654;DHT22;3363;50.942;7.034;2023-01-19T11:11:17;2.20;99.90
6654;DHT22;3363;50.942;7.034;2023-01-19T11:13:44;2.30;99.90
6654;DHT22;3363;50.942;7.034;2023-01-19T11:16:28;2.40;99.90
6654;DHT22;3363;50.942;7.034;2023-01-19T11:18:55;2.30;99.90
6654;DHT22;3363;50.942;7.034;2023-01-19T11:21:23;2.30;99.90
6654;DHT22;3363;50.942;7.034;2023-01-19T11:23:51;2.40;99.90
6654;DHT22;3363;50.942;7.034;2023-01-19T11:26:23;2.50;99.90
6654;DHT22;3363;50.942;7.034;2023-01-19T11:28:51;2.40;99.90
6654;DHT22;3363;50.942;7.034;2023-01-19T11:31:20;2.50;99.90
6654;DHT22;3363;50.942;7.034;2023-01-19T11:33:54;2.50;99.90
6654;DHT22;3363;50.942;7.034;2023-01-19T11:36:22;2.40;99.90
6654;DHT22;3363;50.942;7.034;2023-01-19T11:38:49;2.60;99.90
6654;DHT22;3363;50.942;7.034;2023-01-19T11:41:18;2.50;99.90
6654;DHT22;3363;50.942;7.034;2023-01-19T11:43:46;2.50;99.90
6654;DHT22;3363;50.942;7.034;2023-01-19T11:46:13;2.60;99.90
6654;DHT22;3363;50.942;7.034;2023-01-19T11:48:41;2.50;99.90
6654;DHT22;3363;50.942;7.034;2023-01-19T11:51:09;2.60;99.90
6654;DHT22;3363;50.942;7.034;2023-01-19T11:53:38;2.60;99.90
6654;DHT22;3363;50.942;7.034;2023-01-19T11:56:07;2.60;99.90
6654;DHT22;3363;50.942;7.034;2023-01-19T11:58:37;2.60;99.90
6654;DHT22;3363;50.942;7.034;2023-01-19T12:01:05;2.60;99.90
6654;DHT22;3363;50.942;7.034;2023-01-19T12:03:33;2.70;99.90
6654;DHT22;3363;50.942;7.034;2023-01-19T12:06:03;2.70;99.90
6654;DHT22;3363;50.942;7.034;2023-01-19T12:08:32;2.70;99.90
6654;DHT22;3363;50.942;7.034;2023-01-19T12:11:00;2.60;99.90
6654;DHT22;3363;50.942;7.034;2023-01-19T12:13:27;2.70;99.90
6654;DHT22;3363;50.942;7.034;2023-01-19T12:15:56;2.90;99.90
6654;DHT22;3363;50.942;7.034;2023-01-19T12:18:25;2.90;99.90
6654;DHT22;3363;50.942;7.034;2023-01-19T12:20:54;3.00;99.90
6654;DHT22;3363;50.942;7.034;2023-01-19T12:23:28;3.00;99.90
6654;DHT22;3363;50.942;7.034;2023-01-19T12:26:05;3.00;99.90
6654;DHT22;3363;50.942;7.034;2023-01-19T12:28:35;3.00;99.90
6654;DHT22;3363;50.942;7.034;2023-01-19T12:31:03;3.10;99.90
6654;DHT22;3363;50.942;7.034;2023-01-19T12:33:31;3.00;99.90
6654;DHT22;3363;50.942;7.034;2023-01-19T12:36:02;3.10;99.90
6654;DHT22;3363;50.942;7.034;2023-01-19T12:38:34;3.10;99.90
6654;DHT22;3363;50.942;7.034;2023-01-19T12:43:46;3.10;99.90
6654;DHT22;3363;50.942;7.034;2023-01-19T12:46:23;3.10;99.90
6654;DHT22;3363;50.942;7.034;2023-01-19T12:48:52;3.10;99.90
6654;DHT22;3363;50.942;7.034;2023-01-19T12:51:22;3.10;99.90
6654;DHT22;3363;50.942;7.034;2023-01-19T12:53:50;3.10;99.90
6654;DHT22;3363;50.942;7.034;2023-01-19T12:56:17;3.10;99.90
6654;DHT22;3363;50.942;7.034;2023-01-19T12:58:46;3.20;99.90
6654;DHT22;3363;50.942;7.034;2023-01-19T13:01:14;3.10;99.90
6654;DHT22;3363;50.942;7.034;2023-01-19T13:03:56;3.10;99.90
6654;DHT22;3363;50.942;7.034;2023-01-19T13:09:23;3.00;99.90
6654;DHT22;3363;50.942;7.034;2023-01-19T13:14:39;3.20;99.90
6654;DHT22;3363;50.942;7.034;2023-01-19T13:17:17;3.20;99.90
6654;DHT22;3363;50.942;7.034;2023-01-19T13:25:26;3.10;99.90
6654;DHT22;3363;50.942;7.034;2023-01-19T13:27:54;3.20;99.90
6654;DHT22;3363;50.942;7.034;2023-01-19T13:30:22;3.10;99.90
6654;DHT22;3363;50.942;7.034;2023-01-19T13:32:51;3.10;99.90
6654;DHT22;3363;50.942;7.034;2023-01-19T13:35:18;3.00;99.90
6654;DHT22;3363;50.942;7.034;2023-01-19T13:37:45;3.00;99.90
6654;DHT22;3363;50.942;7.034;2023-01-19T13:40:15;2.80;99.90
6654;DHT22;3363;50.942;7.034;2023-01-19T13:42:45;2.80;99.90
6654;DHT22;3363;50.942;7.034;2023-01-19T13:45:16;2.80;99.90
6654;DHT22;3363;50.942;7.034;2023-01-19T13:47:47;2.90;99.90
6654;DHT22;3363;50.942;7.034;2023-01-19T13:50:17;3.00;99.90
6654;DHT22;3363;50.942;7.034;2023-01-19T13:52:44;2.90;99.90
6654;DHT22;3363;50.942;7.034;2023-01-19T13:55:13;3.00;99.90
6654;DHT22;3363;50.942;7.034;2023-01-19T13:57:41;3.20;99.90
6654;DHT22;3363;50.942;7.034;2023-01-19T14:00:16;3.20;99.90
6654;DHT22;3363;50.942;7.034;2023-01-19T14:02:50;3.20;99.90
6654;DHT22;3363;50.942;7.034;2023-01-19T14:05:20;3.20;99.90
6654;DHT22;3363;50.942;7.034;2023-01-19T14:07:47;3.40;99.90
6654;DHT22;3363;50.942;7.034;2023-01-19T14:10:14;3.30;99.90
6654;DHT22;3363;50.942;7.034;2023-01-19T14:12:41;3.40;99.90
6654;DHT22;3363;50.942;7.034;2023-01-19T14:15:08;3.50;99.90
6654;DHT22;3363;50.942;7.034;2023-01-19T14:17:39;3.50;99.90
6654;DHT22;3363;50.942;7.034;2023-01-19T14:22:48;3.40;99.90
6654;DHT22;3363;50.942;7.034;2023-01-19T14:25:27;3.40;99.90
6654;DHT22;3363;50.942;7.034;2023-01-19T14:30:39;3.30;99.90
6654;DHT22;3363;50.942;7.034;2023-01-19T14:33:35;3.20;99.90
6654;DHT22;3363;50.942;7.034;2023-01-19T14:36:18;3.30;99.90
6654;DHT22;3363;50.942;7.034;2023-01-19T14:38:49;3.20;99.90
6654;DHT22;3363;50.942;7.034;2023-01-19T14:41:21;3.20;99.90
6654;DHT22;3363;50.942;7.034;2023-01-19T14:43:48;3.20;99.90
6654;DHT22;3363;50.942;7.034;2023-01-19T14:46:16;3.10;99.90
6654;DHT22;3363;50.942;7.034;2023-01-19T14:48:45;3.20;99.90
6654;DHT22;3363;50.942;7.034;2023-01-19T14:51:14;3.10;99.90
6654;DHT22;3363;50.942;7.034;2023-01-19T14:53:44;3.10;99.90
6654;DHT22;3363;50.942;7.034;2023-01-19T14:56:11;3.10;99.90
6654;DHT22;3363;50.942;7.034;2023-01-19T14:58:48;3.10;99.90
6654;DHT22;3363;50.942;7.034;2023-01-19T15:01:15;3.20;99.90
6654;DHT22;3363;50.942;7.034;2023-01-19T15:03:42;3.10;99.90
6654;DHT22;3363;50.942;7.034;2023-01-19T15:06:10;3.20;99.90
6654;DHT22;3363;50.942;7.034;2023-01-19T15:08:38;3.20;99.90
6654;DHT22;3363;50.942;7.034;2023-01-19T15:11:07;3.30;99.90
6654;DHT22;3363;50.942;7.034;2023-01-19T15:13:34;3.30;99.90
6654;DHT22;3363;50.942;7.034;2023-01-19T15:16:01;3.20;99.90
6654;DHT22;3363;50.942;7.034;2023-01-19T15:18:28;3.20;99.90
6654;DHT22;3363;50.942;7.034;2023-01-19T15:20:55;3.20;99.90
6654;DHT22;3363;50.942;7.034;2023-01-19T15:23:28;3.20;99.90
6654;DHT22;3363;50.942;7.034;2023-01-19T15:25:57;3.20;99.90
6654;DHT22;3363;50.942;7.034;2023-01-19T15:28:24;3.20;99.90
6654;DHT22;3363;50.942;7.034;2023-01-19T15:30:51;3.10;99.90
6654;DHT22;3363;50.942;7.034;2023-01-19T15:33:19;3.10;99.90
6654;DHT22;3363;50.942;7.034;2023-01-19T15:35:46;3.10;99.90
6654;DHT22;3363;50.942;7.034;2023-01-19T15:38:12;3.10;99.90
6654;DHT22;3363;50.942;7.034;2023-01-19T15:40:40;3.10;99.90
6654;DHT22;3363;50.942;7.034;2023-01-19T15:43:08;3.10;99.90
6654;DHT22;3363;50.942;7.034;2023-01-19T15:45:35;3.10;99.90
6654;DHT22;3363;50.942;7.034;2023-01-19T15:48:03;3.10;99.90
6654;DHT22;3363;50.942;7.034;2023-01-19T15:50:30;3.00;99.90
6654;DHT22;3363;50.942;7.034;2023-01-19T15:52:57;3.00;99.90
6654;DHT22;3363;50.942;7.034;2023-01-19T15:55:23;3.00;99.90
6654;DHT22;3363;50.942;7.034;2023-01-19T15:57:51;3.00;99.90
6654;DHT22;3363;50.942;7.034;2023-01-19T16:00:19;3.00;99.90
6654;DHT22;3363;50.942;7.034;2023-01-19T16:02:46;3.00;99.90
6654;DHT22;3363;50.942;7.034;2023-01-19T16:05:14;2.90;99.90
6654;DHT22;3363;50.942;7.034;2023-01-19T16:07:41;2.90;99.90
6654;DHT22;3363;50.942;7.034;2023-01-19T16:10:08;2.90;99.90
6654;DHT22;3363;50.942;7.034;2023-01-19T16:12:34;2.90;99.90
6654;DHT22;3363;50.942;7.034;2023-01-19T16:15:03;2.90;99.90
6654;DHT22;3363;50.942;7.034;2023-01-19T16:17:30;2.90;99.90
6654;DHT22;3363;50.942;7.034;2023-01-19T16:19:56;2.90;99.90
6654;DHT22;3363;50.942;7.034;2023-01-19T16:22:23;2.90;99.90
6654;DHT22;3363;50.942;7.034;2023-01-19T16:24:50;2.90;99.90
6654;DHT22;3363;50.942;7.034;2023-01-19T16:27:17;3.00;99.90
6654;DHT22;3363;50.942;7.034;2023-01-19T16:29:44;3.00;99.90
6654;DHT22;3363;50.942;7.034;2023-01-19T16:32:12;3.00;99.90
6654;DHT22;3363;50.942;7.034;2023-01-19T16:34:38;3.00;99.90
6654;DHT22;3363;50.942;7.034;2023-01-19T16:37:05;3.00;99.90
6654;DHT22;3363;50.942;7.034;2023-01-19T16:39:31;2.90;99.90
6654;DHT22;3363;50.942;7.034;2023-01-19T16:41:58;2.90;99.90
6654;DHT22;3363;50.942;7.034;2023-01-19T16:44:25;2.90;99.90